createdAt,value
2022-12-03T00:01:48.381Z,6.85
2022-12-03T00:04:15.264Z,6.64
2022-12-03T00:06:41.735Z,6.40
2022-12-03T00:09:09.008Z,6.37
2022-12-03T00:11:35.599Z,6.20
2022-12-03T00:14:02.057Z,6.66
2022-12-03T00:16:29.177Z,6.36
2022-12-03T00:18:56.023Z,6.76
2022-12-03T00:21:24.580Z,6.85
2022-12-03T00:23:51.701Z,6.89
2022-12-03T00:26:18.151Z,6.86
2022-12-03T00:28:45.535Z,6.65
2022-12-03T00:31:12.072Z,6.72
2022-12-03T00:33:38.544Z,6.72
2022-12-03T00:36:05.411Z,6.48
2022-12-03T00:38:32.100Z,6.70
2022-12-03T00:41:01.860Z,6.85
2022-12-03T00:43:28.300Z,6.63
2022-12-03T00:45:54.802Z,6.39
2022-12-03T00:48:21.237Z,6.95
2022-12-03T00:50:47.689Z,6.49
2022-12-03T00:53:14.124Z,6.65
2022-12-03T00:55:40.563Z,6.58
2022-12-03T00:58:08.601Z,6.64
2022-12-03T01:00:36.044Z,6.74
2022-12-03T01:03:02.890Z,6.59
2022-12-03T01:05:29.385Z,6.44
2022-12-03T01:07:55.890Z,6.24
2022-12-03T01:10:22.393Z,6.70
2022-12-03T01:12:48.858Z,6.74
2022-12-03T01:15:15.286Z,6.03
2022-12-03T01:17:41.820Z,6.31
2022-12-03T01:20:09.592Z,6.14
2022-12-03T01:22:36.164Z,6.05
2022-12-03T01:25:02.687Z,6.18
2022-12-03T01:27:29.140Z,6.25
2022-12-03T01:29:55.575Z,6.48
2022-12-03T01:32:22.215Z,6.58
2022-12-03T01:34:49.731Z,6.75
2022-12-03T01:37:17.227Z,6.79
2022-12-03T01:39:43.751Z,6.94
2022-12-03T01:42:19.674Z,6.44
2022-12-03T01:44:46.621Z,6.38
2022-12-03T01:47:16.891Z,6.24
2022-12-03T01:49:47.213Z,6.22
2022-12-03T01:52:16.471Z,6.44
2022-12-03T01:54:47.123Z,6.29
2022-12-03T01:57:19.973Z,6.13
2022-12-03T01:59:46.715Z,6.05
2022-12-03T02:02:18.042Z,6.34
2022-12-03T02:04:44.607Z,6.46
2022-12-03T02:07:37.431Z,6.31
2022-12-03T02:10:05.054Z,6.62
2022-12-03T02:12:51.733Z,6.11
2022-12-03T02:15:18.252Z,5.95
2022-12-03T02:17:44.757Z,6.63
2022-12-03T02:20:12.906Z,6.48
2022-12-03T02:23:00.577Z,6.61
2022-12-03T02:25:32.870Z,5.98
2022-12-03T02:28:00.224Z,5.99
2022-12-03T02:30:28.134Z,5.71
2022-12-03T02:32:56.104Z,6.27
2022-12-03T02:35:25.599Z,5.93
2022-12-03T02:37:55.470Z,6.58
2022-12-03T02:40:25.063Z,6.29
2022-12-03T02:42:55.295Z,6.44
2022-12-03T02:45:24.831Z,6.73
2022-12-03T02:47:57.000Z,6.41
2022-12-03T02:50:28.068Z,6.34
2022-12-03T02:52:56.100Z,6.66
2022-12-03T02:55:22.951Z,6.65
2022-12-03T02:57:50.376Z,6.78
2022-12-03T03:00:18.248Z,7.21
2022-12-03T03:02:46.269Z,6.34
2022-12-03T03:05:13.295Z,6.79
2022-12-03T03:07:40.228Z,7.00
2022-12-03T03:10:07.812Z,7.12
2022-12-03T03:12:39.071Z,7.03
2022-12-03T03:15:07.270Z,6.95
2022-12-03T03:17:35.313Z,6.88
2022-12-03T03:20:02.863Z,6.24
2022-12-03T03:22:37.631Z,6.37
2022-12-03T03:25:05.148Z,6.16
2022-12-03T03:27:32.136Z,6.53
2022-12-03T03:29:59.165Z,6.16
2022-12-03T03:32:27.179Z,6.59
2022-12-03T03:34:54.145Z,6.89
2022-12-03T03:37:21.072Z,6.67
2022-12-03T03:39:47.848Z,6.64
2022-12-03T03:42:14.431Z,6.75
2022-12-03T03:44:40.983Z,7.04
2022-12-03T03:47:07.701Z,6.60
2022-12-03T03:49:34.235Z,6.59
2022-12-03T03:52:00.732Z,6.88
2022-12-03T03:54:27.286Z,6.41
2022-12-03T03:56:53.769Z,6.59
2022-12-03T03:59:20.183Z,6.65
2022-12-03T04:01:46.797Z,5.96
2022-12-03T04:04:19.979Z,5.91
2022-12-03T04:06:47.273Z,6.08
2022-12-03T04:09:13.835Z,6.66
2022-12-03T04:11:58.976Z,5.85
2022-12-03T04:14:25.415Z,6.45
2022-12-03T04:16:51.865Z,6.32
2022-12-03T04:19:18.454Z,6.83
2022-12-03T04:22:03.649Z,6.94
2022-12-03T04:24:45.150Z,6.33
2022-12-03T04:27:30.412Z,6.34
2022-12-03T04:29:56.870Z,6.41
2022-12-03T04:32:42.002Z,6.37
2022-12-03T04:35:28.125Z,6.46
2022-12-03T04:37:54.651Z,6.65
2022-12-03T04:40:39.709Z,6.33
2022-12-03T04:43:06.166Z,6.27
2022-12-03T04:45:32.677Z,6.37
2022-12-03T04:47:59.180Z,6.72
2022-12-03T04:50:25.616Z,6.67
2022-12-03T04:52:52.055Z,6.83
2022-12-03T04:55:18.510Z,6.82
2022-12-03T04:57:44.926Z,6.57
2022-12-03T05:00:12.066Z,6.48
2022-12-03T05:02:38.539Z,6.15
2022-12-03T05:05:05.388Z,6.70
2022-12-03T05:07:31.870Z,6.47
2022-12-03T05:09:58.361Z,6.49
2022-12-03T05:12:24.802Z,6.17
2022-12-03T05:14:51.552Z,6.32
2022-12-03T05:17:18.366Z,6.71
2022-12-03T05:20:03.514Z,6.49
2022-12-03T05:22:29.948Z,6.65
2022-12-03T05:24:56.762Z,6.33
2022-12-03T05:27:24.258Z,6.19
2022-12-03T05:29:51.365Z,6.06
2022-12-03T05:32:17.857Z,5.75
2022-12-03T05:34:44.320Z,5.48
2022-12-03T05:37:11.075Z,5.55
2022-12-03T05:39:37.731Z,5.90
2022-12-03T05:42:22.814Z,5.74
2022-12-03T05:44:49.320Z,6.20
2022-12-03T05:47:15.761Z,5.67
2022-12-03T05:49:42.316Z,5.83
2022-12-03T05:52:08.760Z,6.12
2022-12-03T05:54:35.234Z,6.20
2022-12-03T05:57:01.683Z,5.93
2022-12-03T05:59:28.121Z,5.91
2022-12-03T06:01:54.571Z,5.78
2022-12-03T06:04:21.040Z,5.84
2022-12-03T06:06:47.480Z,6.41
2022-12-03T06:09:13.940Z,6.34
2022-12-03T06:11:41.281Z,5.93
2022-12-03T06:14:07.979Z,5.91
2022-12-03T06:16:34.480Z,5.96
2022-12-03T06:19:01.048Z,5.76
2022-12-03T06:21:27.505Z,5.80
2022-12-03T06:23:53.944Z,5.93
2022-12-03T06:26:20.375Z,6.11
2022-12-03T06:28:49.105Z,6.03
2022-12-03T06:31:15.857Z,5.72
2022-12-03T06:33:42.455Z,5.42
2022-12-03T06:36:09.054Z,5.64
2022-12-03T06:38:35.504Z,5.81
2022-12-03T06:41:01.944Z,6.55
2022-12-03T06:43:28.376Z,6.19
2022-12-03T06:45:54.828Z,6.25
2022-12-03T06:48:21.279Z,5.75
2022-12-03T06:50:47.777Z,5.50
2022-12-03T06:53:14.201Z,5.71
2022-12-03T06:55:40.668Z,5.48
2022-12-03T06:58:07.147Z,5.53
2022-12-03T07:00:33.598Z,5.24
2022-12-03T07:03:00.107Z,4.80
2022-12-03T07:05:26.738Z,5.12
2022-12-03T07:07:55.328Z,4.88
2022-12-03T07:10:22.334Z,4.95
2022-12-03T07:12:48.758Z,4.67
2022-12-03T07:15:15.238Z,4.85
2022-12-03T07:17:41.684Z,5.01
2022-12-03T07:20:09.043Z,5.43
2022-12-03T07:22:35.485Z,5.16
2022-12-03T07:25:02.009Z,5.17
2022-12-03T07:27:28.430Z,5.14
2022-12-03T07:29:54.880Z,5.20
2022-12-03T07:32:21.326Z,5.33
2022-12-03T07:34:47.779Z,5.14
2022-12-03T07:37:17.507Z,5.24
2022-12-03T07:39:46.516Z,5.06
2022-12-03T07:42:13.010Z,4.56
2022-12-03T07:44:39.469Z,4.68
2022-12-03T07:47:06.050Z,4.63
2022-12-03T07:49:32.883Z,4.54
2022-12-03T07:51:59.326Z,4.41
2022-12-03T07:54:26.260Z,4.80
2022-12-03T07:56:57.955Z,5.09
2022-12-03T07:59:28.690Z,4.96
2022-12-03T08:01:55.183Z,5.12
2022-12-03T08:04:21.748Z,5.61
2022-12-03T08:06:48.870Z,5.30
2022-12-03T08:09:16.455Z,5.04
2022-12-03T08:11:45.492Z,4.93
2022-12-03T08:14:17.212Z,5.43
2022-12-03T08:16:45.262Z,5.40
2022-12-03T08:19:13.831Z,4.89
2022-12-03T08:21:40.771Z,5.09
2022-12-03T08:24:14.896Z,5.09
2022-12-03T08:26:44.045Z,5.22
2022-12-03T08:29:12.467Z,5.04
2022-12-03T08:31:39.756Z,4.86
2022-12-03T08:34:19.446Z,4.89
2022-12-03T08:36:47.216Z,4.73
2022-12-03T08:39:33.851Z,4.98
2022-12-03T08:42:32.143Z,4.66
2022-12-03T08:45:29.712Z,4.95
2022-12-03T08:48:00.698Z,5.38
2022-12-03T08:50:28.252Z,5.35
2022-12-03T08:52:58.326Z,5.60
2022-12-03T08:55:38.616Z,5.52
2022-12-03T08:58:28.116Z,5.17
2022-12-03T09:01:11.259Z,5.08
2022-12-03T09:03:48.376Z,5.56
2022-12-03T09:06:14.872Z,4.98
2022-12-03T09:08:41.326Z,5.24
2022-12-03T09:11:07.818Z,5.14
2022-12-03T09:13:34.342Z,5.32
2022-12-03T09:16:00.813Z,5.11
2022-12-03T09:18:27.255Z,5.30
2022-12-03T09:20:53.698Z,5.47
2022-12-03T09:23:20.132Z,5.02
2022-12-03T09:25:46.597Z,5.34
2022-12-03T09:28:13.075Z,5.73
2022-12-03T09:30:39.560Z,5.79
2022-12-03T09:33:06.013Z,5.71
2022-12-03T09:35:32.561Z,5.31
2022-12-03T09:37:59.041Z,5.42
2022-12-03T09:40:25.545Z,5.56
2022-12-03T09:42:52.094Z,5.78
2022-12-03T09:45:18.608Z,5.30
2022-12-03T09:47:47.256Z,5.54
2022-12-03T09:50:15.808Z,5.74
2022-12-03T09:52:42.484Z,5.85
2022-12-03T09:55:17.786Z,6.07
2022-12-03T09:57:44.443Z,5.93
2022-12-03T10:00:19.245Z,5.53
2022-12-03T10:02:46.867Z,5.59
2022-12-03T10:05:14.626Z,5.16
2022-12-03T10:07:42.041Z,5.35
2022-12-03T10:10:18.471Z,5.53
2022-12-03T10:12:45.214Z,5.52
2022-12-03T10:15:13.403Z,5.34
2022-12-03T10:17:39.929Z,5.70
2022-12-03T10:20:07.726Z,5.15
2022-12-03T10:22:37.327Z,5.40
2022-12-03T10:25:07.767Z,5.82
2022-12-03T10:27:34.300Z,5.69
2022-12-03T10:30:03.887Z,5.61
2022-12-03T10:32:45.555Z,5.68
2022-12-03T10:35:17.980Z,5.67
2022-12-03T10:38:05.263Z,5.89
2022-12-03T10:40:37.328Z,6.01
2022-12-03T10:43:23.646Z,5.97
2022-12-03T10:46:00.474Z,5.53
2022-12-03T10:48:30.126Z,5.94
2022-12-03T10:51:02.268Z,5.96
2022-12-03T10:53:34.017Z,5.72
2022-12-03T10:56:03.048Z,5.55
2022-12-03T10:58:31.466Z,5.63
2022-12-03T11:00:59.107Z,5.84
2022-12-03T11:03:27.914Z,5.67
2022-12-03T11:05:55.465Z,5.75
2022-12-03T11:08:24.548Z,5.69
2022-12-03T11:11:03.080Z,6.29
2022-12-03T11:13:32.742Z,5.79
2022-12-03T11:16:00.652Z,6.29
2022-12-03T11:18:36.325Z,5.77
2022-12-03T11:21:08.833Z,5.63
2022-12-03T11:23:44.402Z,6.09
2022-12-03T11:26:19.785Z,6.22
2022-12-03T11:28:46.507Z,6.06
2022-12-03T11:31:39.262Z,6.38
2022-12-03T11:34:18.019Z,6.37
2022-12-03T11:37:12.417Z,5.68
2022-12-03T11:39:45.215Z,5.25
2022-12-03T11:42:26.933Z,5.71
2022-12-03T11:45:02.591Z,5.55
2022-12-03T11:47:36.591Z,5.38
2022-12-03T11:50:17.763Z,5.56
2022-12-03T11:52:46.799Z,5.92
2022-12-03T11:55:17.992Z,5.82
2022-12-03T11:57:44.522Z,6.19
2022-12-03T12:00:21.460Z,6.32
2022-12-03T12:02:49.091Z,6.35
2022-12-03T12:05:20.898Z,6.26
2022-12-03T12:07:48.214Z,6.32
2022-12-03T12:10:44.891Z,5.88
2022-12-03T12:13:30.133Z,6.21
2022-12-03T12:15:57.784Z,6.50
2022-12-03T12:18:41.507Z,6.35
2022-12-03T12:21:43.119Z,5.94
2022-12-03T12:24:31.484Z,6.03
2022-12-03T12:27:00.526Z,5.95
2022-12-03T12:29:27.500Z,6.27
2022-12-03T12:32:06.117Z,6.05
2022-12-03T12:34:33.029Z,5.42
2022-12-03T12:37:00.331Z,5.85
2022-12-03T12:39:26.925Z,5.79
2022-12-03T12:41:54.461Z,5.57
2022-12-03T12:44:23.557Z,5.87
2022-12-03T12:46:52.618Z,6.19
2022-12-03T12:49:23.479Z,6.40
2022-12-03T12:51:50.622Z,6.34
2022-12-03T12:54:20.396Z,6.01
2022-12-03T12:56:49.943Z,5.59
2022-12-03T12:59:20.906Z,5.92
2022-12-03T13:01:49.228Z,6.22
2022-12-03T13:04:21.815Z,6.06
2022-12-03T13:06:50.478Z,6.01
2022-12-03T13:09:20.543Z,5.87
2022-12-03T13:12:00.222Z,5.93
2022-12-03T13:14:32.139Z,5.72
2022-12-03T13:17:01.325Z,5.66
2022-12-03T13:19:29.672Z,5.85
2022-12-03T13:21:57.672Z,5.65
2022-12-03T13:24:37.254Z,4.73
2022-12-03T13:27:23.067Z,5.04
2022-12-03T13:29:54.719Z,4.94
2022-12-03T13:32:32.404Z,5.34
2022-12-03T13:35:23.482Z,5.33
2022-12-03T13:37:50.060Z,5.63
2022-12-03T13:40:30.805Z,5.33
2022-12-03T13:42:58.428Z,5.36
2022-12-03T13:45:31.033Z,5.27
2022-12-03T13:48:01.906Z,5.31
2022-12-03T13:50:39.846Z,5.30
2022-12-03T13:53:31.833Z,5.55
2022-12-03T13:56:09.231Z,5.63
2022-12-03T13:58:35.662Z,5.75
2022-12-03T14:01:02.168Z,6.12
2022-12-03T14:03:28.620Z,6.11
2022-12-03T14:05:55.064Z,5.82
2022-12-03T14:08:21.571Z,5.86
2022-12-03T14:10:48.046Z,6.19
2022-12-03T14:13:14.454Z,6.04
2022-12-03T14:15:40.907Z,5.91
2022-12-03T14:18:07.334Z,5.82
2022-12-03T14:20:34.994Z,6.02
2022-12-03T14:23:01.426Z,6.10
2022-12-03T14:25:27.923Z,5.70
2022-12-03T14:27:54.424Z,5.77
2022-12-03T14:30:21.226Z,5.79
2022-12-03T14:32:47.687Z,5.79
2022-12-03T14:35:14.225Z,5.93
2022-12-03T14:37:40.640Z,5.91
2022-12-03T14:40:09.074Z,5.74
2022-12-03T14:42:36.496Z,5.25
2022-12-03T14:45:03.692Z,4.88
2022-12-03T14:47:33.418Z,5.92
2022-12-03T14:50:00.594Z,6.10
2022-12-03T14:52:27.223Z,5.93
2022-12-03T14:54:53.724Z,6.26
2022-12-03T14:57:20.241Z,5.68
2022-12-03T14:59:47.284Z,6.09
2022-12-03T15:02:14.118Z,6.00
2022-12-03T15:04:41.218Z,5.49
2022-12-03T15:07:08.017Z,5.01
2022-12-03T15:09:34.651Z,5.68
2022-12-03T15:12:01.404Z,5.77
2022-12-03T15:14:28.001Z,5.57
2022-12-03T15:16:54.663Z,5.37
2022-12-03T15:19:21.355Z,5.63
2022-12-03T15:21:47.832Z,5.56
2022-12-03T15:24:14.333Z,5.69
2022-12-03T15:26:40.770Z,5.60
2022-12-03T15:29:07.254Z,5.88
2022-12-03T15:31:33.890Z,5.35
2022-12-03T15:34:00.375Z,5.39
2022-12-03T15:36:26.851Z,5.37
2022-12-03T15:38:53.354Z,5.16
2022-12-03T15:41:29.022Z,5.50
2022-12-03T15:43:57.565Z,5.20
2022-12-03T15:46:24.317Z,5.29
2022-12-03T15:48:50.824Z,5.04
2022-12-03T15:51:17.532Z,5.08
2022-12-03T15:53:43.963Z,5.11
2022-12-03T15:56:12.084Z,5.40
2022-12-03T15:58:39.668Z,5.58
2022-12-03T16:01:06.598Z,4.99
2022-12-03T16:03:33.163Z,4.93
2022-12-03T16:05:59.711Z,5.14
2022-12-03T16:08:26.939Z,4.88
2022-12-03T16:10:53.441Z,4.64
2022-12-03T16:13:19.907Z,5.04
2022-12-03T16:15:46.380Z,5.37
2022-12-03T16:18:12.843Z,5.19
2022-12-03T16:20:39.340Z,4.93
2022-12-03T16:23:05.819Z,5.14
2022-12-03T16:25:32.308Z,5.23
2022-12-03T16:27:58.801Z,5.17
2022-12-03T16:30:25.300Z,5.42
2022-12-03T16:32:51.846Z,4.96
2022-12-03T16:35:18.442Z,5.02
2022-12-03T16:37:44.923Z,5.29
2022-12-03T16:40:12.143Z,5.19
2022-12-03T16:42:38.670Z,5.18
2022-12-03T16:45:08.422Z,5.06
2022-12-03T16:47:35.989Z,4.93
2022-12-03T16:50:03.811Z,4.76
2022-12-03T16:52:30.292Z,4.91
2022-12-03T16:54:56.727Z,4.76
2022-12-03T16:57:23.190Z,4.77
2022-12-03T16:59:49.618Z,4.55
2022-12-03T17:02:16.243Z,5.03
2022-12-03T17:04:42.710Z,4.66
2022-12-03T17:07:09.176Z,4.20
2022-12-03T17:09:35.591Z,4.39
2022-12-03T17:12:02.044Z,4.71
2022-12-03T17:14:33.032Z,5.03
2022-12-03T17:16:59.844Z,4.48
2022-12-03T17:19:26.288Z,4.34
2022-12-03T17:21:54.093Z,4.61
2022-12-03T17:24:21.442Z,4.85
2022-12-03T17:26:48.051Z,4.79
2022-12-03T17:29:14.542Z,4.58
2022-12-03T17:31:42.493Z,4.73
2022-12-03T17:34:09.587Z,4.34
2022-12-03T17:36:36.077Z,4.76
2022-12-03T17:39:02.583Z,4.47
2022-12-03T17:41:29.043Z,4.74
2022-12-03T17:43:55.485Z,4.42
2022-12-03T17:46:22.048Z,4.57
2022-12-03T17:48:48.500Z,4.78
2022-12-03T17:51:15.034Z,4.82
2022-12-03T17:53:41.471Z,4.62
2022-12-03T17:56:08.007Z,4.43
2022-12-03T17:58:34.762Z,4.90
2022-12-03T18:01:03.114Z,4.70
2022-12-03T18:03:30.156Z,4.63
2022-12-03T18:05:56.754Z,4.57
2022-12-03T18:08:23.396Z,4.93
2022-12-03T18:10:50.241Z,4.79
2022-12-03T18:13:16.779Z,4.80
2022-12-03T18:15:43.345Z,4.69
2022-12-03T18:18:09.910Z,5.14
2022-12-03T18:20:36.515Z,5.33
2022-12-03T18:23:03.152Z,5.04
2022-12-03T18:25:29.762Z,4.53
2022-12-03T18:27:56.925Z,4.76
2022-12-03T18:30:23.492Z,5.51
2022-12-03T18:32:50.700Z,5.27
2022-12-03T18:35:18.036Z,5.51
2022-12-03T18:37:44.683Z,5.70
2022-12-03T18:40:20.113Z,5.37
2022-12-03T18:42:47.047Z,5.52
2022-12-03T18:45:15.210Z,5.66
2022-12-03T18:47:42.243Z,5.86
2022-12-03T18:50:09.583Z,5.75
2022-12-03T18:52:36.299Z,5.44
2022-12-03T18:55:03.520Z,6.17
2022-12-03T18:57:29.972Z,6.14
2022-12-03T18:59:56.556Z,6.10
2022-12-03T19:05:10.028Z,5.79
2022-12-03T19:07:36.963Z,6.48
2022-12-03T19:10:04.568Z,5.88
2022-12-03T19:12:31.246Z,5.89
2022-12-03T19:14:58.773Z,5.32
2022-12-03T19:17:27.109Z,5.79
2022-12-03T19:19:54.278Z,5.63
2022-12-03T19:22:21.313Z,4.90
2022-12-03T19:24:47.767Z,5.01
2022-12-03T19:27:14.330Z,5.18
2022-12-03T19:29:40.832Z,4.77
2022-12-03T19:32:07.544Z,5.06
2022-12-03T19:34:37.072Z,5.03
2022-12-03T19:37:03.590Z,4.49
2022-12-03T19:39:30.052Z,4.34
2022-12-03T19:41:56.553Z,4.41
2022-12-03T19:44:23.105Z,4.44
2022-12-03T19:46:50.124Z,4.18
2022-12-03T19:49:18.613Z,4.66
2022-12-03T19:51:45.143Z,4.89
2022-12-03T19:54:11.660Z,4.60
2022-12-03T19:56:38.659Z,5.01
2022-12-03T19:59:05.479Z,4.60
2022-12-03T20:01:33.585Z,5.06
2022-12-03T20:04:01.944Z,5.61
2022-12-03T20:06:31.403Z,5.03
2022-12-03T20:09:03.974Z,5.02
2022-12-03T20:11:32.178Z,4.75
2022-12-03T20:14:10.513Z,4.33
2022-12-03T20:16:37.367Z,3.94
2022-12-03T20:19:06.731Z,3.95
2022-12-03T20:21:35.513Z,4.39
2022-12-03T20:24:02.718Z,3.77
2022-12-03T20:26:29.208Z,4.41
2022-12-03T20:28:56.877Z,4.66
2022-12-03T20:31:25.875Z,4.74
2022-12-03T20:33:54.982Z,4.18
2022-12-03T20:36:22.786Z,4.45
2022-12-03T20:38:53.771Z,4.52
2022-12-03T20:41:20.795Z,3.95
2022-12-03T20:43:47.916Z,3.96
2022-12-03T20:46:20.301Z,4.03
2022-12-03T20:48:47.292Z,3.71
2022-12-03T20:51:19.097Z,4.23
2022-12-03T20:53:46.061Z,3.79
2022-12-03T20:56:22.181Z,4.11
2022-12-03T20:58:49.728Z,3.95
2022-12-03T21:01:19.336Z,3.43
2022-12-03T21:03:46.570Z,3.89
2022-12-03T21:06:14.118Z,3.88
2022-12-03T21:08:42.472Z,3.92
2022-12-03T21:11:14.905Z,3.94
2022-12-03T21:13:43.511Z,3.93
2022-12-03T21:16:12.762Z,3.72
2022-12-03T21:18:39.531Z,4.03
2022-12-03T21:21:06.137Z,3.68
2022-12-03T21:23:33.733Z,2.90
2022-12-03T21:26:12.321Z,3.83
2022-12-03T21:28:40.849Z,3.38
2022-12-03T21:31:10.072Z,3.14
2022-12-03T21:33:37.316Z,3.59
2022-12-03T21:36:06.618Z,3.39
2022-12-03T21:38:33.944Z,4.13
2022-12-03T21:41:01.348Z,4.21
2022-12-03T21:43:28.211Z,3.97
2022-12-03T21:45:54.763Z,3.68
2022-12-03T21:48:21.845Z,3.20
2022-12-03T21:51:03.608Z,3.32
2022-12-03T21:53:32.132Z,3.00
2022-12-03T21:55:59.035Z,2.78
2022-12-03T21:58:25.619Z,2.58
2022-12-03T22:00:52.170Z,2.62
2022-12-03T22:03:18.616Z,2.77
2022-12-03T22:05:45.118Z,3.47
2022-12-03T22:08:13.735Z,3.40
2022-12-03T22:10:40.433Z,3.18
2022-12-03T22:13:06.900Z,3.35
2022-12-03T22:15:33.535Z,3.78
2022-12-03T22:18:00.073Z,3.54
2022-12-03T22:20:26.875Z,3.54
2022-12-03T22:22:53.366Z,3.74
2022-12-03T22:25:19.823Z,3.80
2022-12-03T22:27:46.259Z,3.74
2022-12-03T22:30:12.828Z,3.11
2022-12-03T22:32:39.319Z,3.28
2022-12-03T22:35:06.219Z,2.82
2022-12-03T22:37:32.889Z,2.98
2022-12-03T22:39:59.446Z,2.73
2022-12-03T22:42:25.904Z,2.98
2022-12-03T22:44:52.351Z,2.90
2022-12-03T22:47:18.809Z,2.68
2022-12-03T22:49:45.257Z,2.72
2022-12-03T22:52:11.722Z,3.28
2022-12-03T22:54:38.156Z,2.87
2022-12-03T22:57:04.656Z,2.90
2022-12-03T22:59:31.144Z,2.72
2022-12-03T23:01:58.131Z,3.07
2022-12-03T23:04:25.128Z,3.20
2022-12-03T23:06:51.607Z,3.10
2022-12-03T23:09:18.311Z,2.90
2022-12-03T23:11:45.460Z,2.78
2022-12-03T23:14:12.888Z,3.20
2022-12-03T23:16:39.592Z,3.28
2022-12-03T23:19:06.427Z,2.94
2022-12-03T23:21:34.903Z,2.50
2022-12-03T23:24:03.696Z,2.49
2022-12-03T23:26:30.516Z,2.89
2022-12-03T23:28:57.074Z,2.71
2022-12-03T23:31:26.567Z,2.63
2022-12-03T23:33:53.620Z,3.27
2022-12-03T23:36:21.256Z,3.15
2022-12-03T23:38:47.833Z,2.96
2022-12-03T23:41:16.327Z,2.89
2022-12-03T23:43:43.160Z,2.87
2022-12-03T23:46:17.913Z,3.06
2022-12-03T23:48:45.576Z,3.37
2022-12-03T23:51:20.797Z,2.90
2022-12-03T23:53:47.672Z,3.18
2022-12-03T23:56:16.971Z,2.67
2022-12-03T23:58:44.334Z,2.86
